Time;durP1;ratioP1;P1;durP2;ratioP2;P2;SDS_P1;SDS_P2;PMS_P1;PMS_P2;Temp;Humidity;BMP_temperature;BMP_pressure;BME280_temperature;BME280_humidity;BME280_pressure;Samples;Min_cycle;Max_cycle;Signal;HPM_P1;HPM_P2
2023/10/31 00:00:12;;;;;;;;;;;15.90;71.20;;;;;;5112279;28;20339;-69
2023/10/31 00:02:38;;;;;;;;;;;15.90;70.60;;;;;;5115614;28;20360;-70
2023/10/31 00:05:05;;;;;;;;;;;15.90;70.90;;;;;;5116815;28;19916;-69
2023/10/31 00:07:31;;;;;;;;;;;16.00;70.30;;;;;;5116742;28;20006;-69
2023/10/31 00:09:56;;;;;;;;;;;16.00;70.70;;;;;;5115201;28;19919;-70
2023/10/31 00:12:22;;;;;;;;;;;16.10;70.80;;;;;;5114748;28;19951;-69
2023/10/31 00:14:48;;;;;;;;;;;16.00;70.60;;;;;;5115284;28;19962;-69
2023/10/31 00:17:14;;;;;;;;;;;16.10;70.60;;;;;;5116445;28;19919;-70
2023/10/31 00:19:40;;;;;;;;;;;16.10;70.40;;;;;;5115071;28;20023;-70
2023/10/31 00:22:06;;;;;;;;;;;16.10;70.40;;;;;;5114467;28;19998;-69
2023/10/31 00:24:32;;;;;;;;;;;16.10;69.80;;;;;;5116195;28;19916;-70
2023/10/31 00:26:58;;;;;;;;;;;16.10;70.40;;;;;;5114800;28;19916;-70
2023/10/31 00:29:24;;;;;;;;;;;16.10;70.40;;;;;;5114900;28;19915;-70
2023/10/31 00:31:50;;;;;;;;;;;16.10;70.40;;;;;;5115782;27;19923;-70
2023/10/31 00:34:16;;;;;;;;;;;16.20;70.80;;;;;;5114824;28;19920;-70
2023/10/31 00:39:20;;;;;;;;;;;16.20;70.10;;;;;;5116083;28;19923;-70
2023/10/31 00:41:47;;;;;;;;;;;16.20;71.00;;;;;;5115187;28;19941;-70
2023/10/31 00:44:13;;;;;;;;;;;16.10;70.00;;;;;;5114542;28;19916;-71
2023/10/31 00:46:39;;;;;;;;;;;16.10;69.80;;;;;;5114376;28;20029;-69
2023/10/31 00:49:05;;;;;;;;;;;16.10;69.40;;;;;;5114336;28;19915;-70
2023/10/31 00:51:32;;;;;;;;;;;16.10;69.90;;;;;;5115305;28;20284;-70
2023/10/31 00:53:58;;;;;;;;;;;16.20;69.70;;;;;;5097205;28;19969;-69
2023/10/31 00:56:24;;;;;;;;;;;16.20;69.90;;;;;;5097234;28;20364;-70
2023/10/31 00:58:49;;;;;;;;;;;16.20;69.80;;;;;;5115536;28;19938;-69
2023/10/31 01:01:15;;;;;;;;;;;16.20;69.80;;;;;;5113631;28;19998;-69
2023/10/31 01:03:42;;;;;;;;;;;16.20;69.70;;;;;;5115545;28;19919;-70
2023/10/31 01:06:08;;;;;;;;;;;16.20;69.50;;;;;;5114145;28;19924;-69
2023/10/31 01:08:34;;;;;;;;;;;16.30;69.70;;;;;;5113833;28;20029;-70
2023/10/31 01:11:00;;;;;;;;;;;16.30;69.60;;;;;;5114558;28;20053;-70
2023/10/31 01:13:26;;;;;;;;;;;16.20;69.60;;;;;;5113577;28;19912;-70
2023/10/31 01:15:52;;;;;;;;;;;16.30;69.50;;;;;;5114029;28;19964;-70
2023/10/31 01:18:18;;;;;;;;;;;16.40;69.40;;;;;;5113925;28;19932;-70
2023/10/31 01:20:44;;;;;;;;;;;16.40;69.30;;;;;;5113222;28;19926;-70
2023/10/31 01:23:09;;;;;;;;;;;16.40;69.10;;;;;;5113867;28;20368;-70
2023/10/31 01:25:35;;;;;;;;;;;16.40;68.90;;;;;;5115029;28;19912;-69
2023/10/31 01:28:01;;;;;;;;;;;16.50;68.90;;;;;;5113796;28;19969;-69
2023/10/31 01:30:27;;;;;;;;;;;16.40;68.60;;;;;;5114303;27;19916;-69
2023/10/31 01:32:53;;;;;;;;;;;16.50;68.70;;;;;;5096608;28;20377;-69
2023/10/31 01:35:19;;;;;;;;;;;16.50;68.80;;;;;;5114778;28;19911;-70
2023/10/31 01:37:45;;;;;;;;;;;16.50;68.60;;;;;;5113519;28;20284;-69
2023/10/31 01:40:29;;;;;;;;;;;16.60;68.50;;;;;;5113061;28;19923;-69
2023/10/31 01:42:56;;;;;;;;;;;16.60;68.40;;;;;;5114716;28;19920;-69
2023/10/31 01:45:22;;;;;;;;;;;16.60;68.40;;;;;;5113166;28;19919;-70
2023/10/31 01:47:49;;;;;;;;;;;16.60;68.60;;;;;;5113211;28;19919;-69
2023/10/31 01:50:16;;;;;;;;;;;16.60;68.50;;;;;;5095745;28;19918;-69
2023/10/31 01:52:42;;;;;;;;;;;16.60;68.60;;;;;;5096262;28;19916;-69
2023/10/31 01:55:09;;;;;;;;;;;16.60;68.80;;;;;;5113483;28;20292;-69
2023/10/31 01:57:34;;;;;;;;;;;16.60;68.70;;;;;;5096231;28;19916;-70
2023/10/31 02:00:00;;;;;;;;;;;16.60;68.80;;;;;;5112967;28;19915;-70
2023/10/31 02:02:27;;;;;;;;;;;16.60;68.20;;;;;;5112773;28;19920;-70
2023/10/31 02:04:53;;;;;;;;;;;16.60;68.70;;;;;;5114139;28;19918;-70
2023/10/31 02:07:19;;;;;;;;;;;16.70;68.90;;;;;;5114309;28;19927;-69
2023/10/31 02:09:45;;;;;;;;;;;16.70;68.80;;;;;;5114405;28;20352;-69
2023/10/31 02:12:10;;;;;;;;;;;16.70;68.80;;;;;;5113824;27;19923;-69
2023/10/31 02:14:36;;;;;;;;;;;16.70;68.80;;;;;;5114165;28;20412;-69
2023/10/31 02:17:02;;;;;;;;;;;16.70;68.80;;;;;;5112742;28;20293;-69
2023/10/31 02:19:28;;;;;;;;;;;16.70;68.30;;;;;;5095610;28;19967;-69
2023/10/31 02:21:55;;;;;;;;;;;16.70;69.20;;;;;;5112189;28;19920;-68
2023/10/31 02:24:20;;;;;;;;;;;16.70;69.30;;;;;;5113007;28;19957;-69
2023/10/31 02:26:46;;;;;;;;;;;16.70;69.40;;;;;;5114090;28;20022;-69
2023/10/31 02:29:12;;;;;;;;;;;16.70;69.60;;;;;;5113838;28;19911;-69
2023/10/31 02:31:38;;;;;;;;;;;16.70;69.90;;;;;;5112004;28;19920;-69
2023/10/31 02:34:04;;;;;;;;;;;16.70;70.00;;;;;;5113795;28;19922;-69
2023/10/31 02:36:30;;;;;;;;;;;16.60;70.40;;;;;;5113790;28;20386;-68
2023/10/31 02:38:56;;;;;;;;;;;16.70;70.40;;;;;;5113386;28;19915;-69
2023/10/31 02:41:23;;;;;;;;;;;16.60;70.40;;;;;;5113262;28;20409;-68
2023/10/31 02:43:49;;;;;;;;;;;16.60;70.60;;;;;;5112371;28;20296;-69
2023/10/31 02:46:16;;;;;;;;;;;16.60;70.20;;;;;;5113245;28;19973;-70
2023/10/31 02:48:41;;;;;;;;;;;16.60;70.90;;;;;;5112274;28;19912;-68
2023/10/31 02:51:07;;;;;;;;;;;16.60;70.90;;;;;;5113089;28;19926;-69
2023/10/31 02:53:35;;;;;;;;;;;16.60;70.30;;;;;;5112218;28;20280;-68
2023/10/31 02:56:01;;;;;;;;;;;16.60;71.10;;;;;;5112212;28;19969;-69
2023/10/31 02:58:28;;;;;;;;;;;16.60;71.30;;;;;;5113585;28;19926;-70
2023/10/31 03:00:54;;;;;;;;;;;16.60;71.60;;;;;;5111508;28;19919;-69
2023/10/31 03:03:19;;;;;;;;;;;16.60;71.80;;;;;;5095167;28;19912;-70
2023/10/31 03:05:45;;;;;;;;;;;16.60;71.90;;;;;;5113323;28;20283;-69
2023/10/31 03:08:12;;;;;;;;;;;16.50;72.10;;;;;;5111741;28;19922;-69
2023/10/31 03:10:39;;;;;;;;;;;16.50;72.10;;;;;;5091350;28;19959;-70
2023/10/31 03:13:04;;;;;;;;;;;16.60;72.10;;;;;;5091625;28;20277;-69
2023/10/31 03:15:31;;;;;;;;;;;16.50;72.80;;;;;;5092800;28;19916;-69
2023/10/31 03:17:56;;;;;;;;;;;16.60;72.70;;;;;;5091505;28;19922;-69
2023/10/31 03:20:22;;;;;;;;;;;16.60;72.70;;;;;;5095043;28;19915;-69
2023/10/31 03:22:48;;;;;;;;;;;16.60;72.60;;;;;;5111999;28;19919;-69
2023/10/31 03:25:14;;;;;;;;;;;16.60;72.60;;;;;;5112943;28;19916;-69
2023/10/31 03:27:40;;;;;;;;;;;16.60;72.80;;;;;;5112095;28;19922;-69
2023/10/31 03:30:06;;;;;;;;;;;16.60;73.00;;;;;;5111320;28;19915;-69
2023/10/31 03:32:32;;;;;;;;;;;16.60;72.90;;;;;;5111972;28;19920;-69
2023/10/31 03:34:58;;;;;;;;;;;16.60;73.20;;;;;;5114199;28;20312;-68
2023/10/31 03:37:24;;;;;;;;;;;16.60;73.70;;;;;;5098736;28;20299;-69
2023/10/31 03:39:50;;;;;;;;;;;16.50;73.80;;;;;;5115794;28;19941;-68
2023/10/31 03:42:16;;;;;;;;;;;16.50;73.80;;;;;;5116694;27;19957;-68
2023/10/31 03:44:42;;;;;;;;;;;16.50;74.00;;;;;;5117002;28;19934;-68
2023/10/31 03:47:08;;;;;;;;;;;16.50;74.20;;;;;;5115818;28;20288;-69
2023/10/31 03:49:33;;;;;;;;;;;16.50;74.10;;;;;;5116755;28;19936;-69
2023/10/31 03:51:59;;;;;;;;;;;16.50;74.20;;;;;;5115241;28;20379;-68
2023/10/31 03:54:25;;;;;;;;;;;16.50;74.50;;;;;;5117015;28;20265;-69
2023/10/31 03:56:51;;;;;;;;;;;16.50;74.40;;;;;;5115556;28;19964;-68
2023/10/31 03:59:17;;;;;;;;;;;16.50;74.80;;;;;;5115438;28;20353;-68
2023/10/31 04:01:43;;;;;;;;;;;16.50;75.20;;;;;;5115922;27;19922;-69
2023/10/31 04:04:09;;;;;;;;;;;16.50;75.20;;;;;;5098320;28;19926;-69
2023/10/31 04:06:35;;;;;;;;;;;16.50;75.50;;;;;;5116829;28;19916;-69
2023/10/31 04:09:00;;;;;;;;;;;16.50;75.90;;;;;;5116446;28;20337;-69
2023/10/31 04:11:26;;;;;;;;;;;16.50;76.00;;;;;;5114745;28;20279;-69
2023/10/31 04:13:52;;;;;;;;;;;16.50;75.90;;;;;;5116497;28;20295;-68
2023/10/31 04:16:18;;;;;;;;;;;16.50;76.30;;;;;;5115134;28;19915;-69
2023/10/31 04:18:44;;;;;;;;;;;16.50;77.40;;;;;;5115113;28;19919;-69
2023/10/31 04:21:10;;;;;;;;;;;16.60;76.30;;;;;;5115707;28;20389;-69
2023/10/31 04:23:35;;;;;;;;;;;16.60;76.30;;;;;;5115164;28;20362;-69
2023/10/31 04:26:01;;;;;;;;;;;16.60;76.50;;;;;;5097705;28;20261;-68
2023/10/31 04:28:27;;;;;;;;;;;16.60;76.40;;;;;;5116179;28;20287;-68
2023/10/31 04:30:53;;;;;;;;;;;16.60;77.00;;;;;;5115593;28;19926;-69
2023/10/31 04:33:19;;;;;;;;;;;16.60;77.70;;;;;;5114858;28;20014;-69
2023/10/31 04:35:45;;;;;;;;;;;16.60;78.00;;;;;;5115928;28;19916;-69
2023/10/31 04:38:11;;;;;;;;;;;16.60;78.20;;;;;;5114226;28;19919;-69
2023/10/31 04:40:37;;;;;;;;;;;16.70;78.80;;;;;;5114242;28;20383;-69
2023/10/31 04:43:03;;;;;;;;;;;16.70;79.90;;;;;;5115849;28;19926;-68
2023/10/31 04:45:29;;;;;;;;;;;16.70;79.40;;;;;;5115681;28;19920;-68
2023/10/31 04:47:54;;;;;;;;;;;16.70;79.20;;;;;;5114600;27;19941;-69
2023/10/31 04:50:20;;;;;;;;;;;16.70;79.30;;;;;;5115055;28;20313;-68
2023/10/31 04:52:46;;;;;;;;;;;16.70;79.40;;;;;;5115623;28;20002;-69
2023/10/31 04:55:12;;;;;;;;;;;16.80;79.60;;;;;;5114462;28;19920;-69
2023/10/31 04:57:38;;;;;;;;;;;16.70;79.90;;;;;;5115496;28;19919;-68
2023/10/31 05:00:06;;;;;;;;;;;16.70;80.00;;;;;;5113753;28;19920;-69
2023/10/31 05:02:32;;;;;;;;;;;16.70;79.80;;;;;;5114543;28;19954;-69
2023/10/31 05:04:58;;;;;;;;;;;16.80;79.70;;;;;;5115464;28;19925;-69
2023/10/31 05:07:24;;;;;;;;;;;16.80;79.80;;;;;;5115574;28;19922;-69
2023/10/31 05:09:49;;;;;;;;;;;16.80;79.70;;;;;;5115434;28;19919;-69
2023/10/31 05:12:15;;;;;;;;;;;16.80;79.80;;;;;;5115024;27;20361;-70
2023/10/31 05:14:41;;;;;;;;;;;16.80;80.00;;;;;;5114454;28;20288;-69
2023/10/31 05:17:07;;;;;;;;;;;16.80;80.30;;;;;;5113989;28;19999;-70
2023/10/31 05:19:33;;;;;;;;;;;16.80;80.20;;;;;;5113763;28;19915;-69
2023/10/31 05:21:59;;;;;;;;;;;16.90;80.30;;;;;;5114785;27;20010;-69
2023/10/31 05:24:25;;;;;;;;;;;16.90;80.20;;;;;;5115045;28;19915;-70
2023/10/31 05:26:50;;;;;;;;;;;16.90;80.30;;;;;;5115185;28;20002;-68
2023/10/31 05:29:16;;;;;;;;;;;16.90;80.70;;;;;;5115056;28;20014;-70
2023/10/31 05:31:43;;;;;;;;;;;16.90;80.60;;;;;;5114602;27;20378;-69
2023/10/31 05:34:09;;;;;;;;;;;17.00;80.40;;;;;;5115229;28;19923;-69
2023/10/31 05:36:35;;;;;;;;;;;17.00;80.30;;;;;;5114781;28;19922;-69
2023/10/31 05:39:00;;;;;;;;;;;17.00;80.20;;;;;;5094744;28;19919;-70
2023/10/31 05:41:26;;;;;;;;;;;17.00;80.20;;;;;;5114272;28;20356;-70
2023/10/31 05:43:52;;;;;;;;;;;17.00;80.80;;;;;;5113402;28;19965;-69
2023/10/31 05:46:18;;;;;;;;;;;17.00;80.80;;;;;;5114783;28;20361;-69
2023/10/31 05:48:45;;;;;;;;;;;17.10;80.00;;;;;;5114555;27;19921;-68
2023/10/31 05:51:25;;;;;;;;;;;17.00;79.70;;;;;;5114056;28;20020;-68
2023/10/31 05:53:51;;;;;;;;;;;17.10;79.80;;;;;;5114308;28;19915;-69
2023/10/31 05:56:17;;;;;;;;;;;17.10;79.90;;;;;;5110752;28;20414;-69
2023/10/31 05:58:43;;;;;;;;;;;17.10;80.00;;;;;;5113086;28;20036;-69
2023/10/31 06:01:09;;;;;;;;;;;17.10;79.90;;;;;;5113565;27;19938;-68
2023/10/31 06:03:35;;;;;;;;;;;17.10;80.00;;;;;;5113218;28;20364;-69
2023/10/31 06:06:01;;;;;;;;;;;17.10;79.40;;;;;;5114135;28;19926;-69
2023/10/31 06:13:55;;;;;;;;;;;17.20;80.00;;;;;;5114227;28;19918;-69
2023/10/31 06:16:21;;;;;;;;;;;17.20;80.00;;;;;;5114252;28;19920;-69
2023/10/31 06:18:47;;;;;;;;;;;17.20;80.00;;;;;;5112645;28;19956;-70
2023/10/31 06:21:13;;;;;;;;;;;17.20;80.10;;;;;;5112041;28;20002;-69
2023/10/31 06:23:39;;;;;;;;;;;17.20;80.10;;;;;;5112802;28;20396;-69
2023/10/31 06:26:05;;;;;;;;;;;17.20;80.10;;;;;;5113872;28;19926;-69
2023/10/31 06:28:34;;;;;;;;;;;17.20;79.40;;;;;;5112524;28;19912;-69
2023/10/31 06:31:01;;;;;;;;;;;17.20;80.00;;;;;;5112129;28;19920;-70
2023/10/31 06:33:27;;;;;;;;;;;17.30;79.90;;;;;;5112611;28;19917;-69
2023/10/31 06:35:53;;;;;;;;;;;17.30;79.20;;;;;;5112264;28;19920;-70
2023/10/31 06:38:19;;;;;;;;;;;17.30;79.60;;;;;;5113366;28;20316;-69
2023/10/31 06:40:46;;;;;;;;;;;17.30;79.10;;;;;;5113182;27;19920;-69
2023/10/31 06:43:11;;;;;;;;;;;17.40;79.50;;;;;;5113615;28;19916;-70
2023/10/31 06:45:37;;;;;;;;;;;17.40;79.70;;;;;;5112316;28;19957;-69
2023/10/31 06:48:03;;;;;;;;;;;17.40;79.70;;;;;;5113474;28;20015;-70
2023/10/31 06:50:30;;;;;;;;;;;17.50;79.30;;;;;;5112897;28;19915;-69
2023/10/31 06:52:56;;;;;;;;;;;17.50;80.10;;;;;;5113334;28;19998;-70
2023/10/31 06:55:21;;;;;;;;;;;17.50;80.00;;;;;;5113363;28;20007;-69
2023/10/31 06:57:47;;;;;;;;;;;17.40;80.00;;;;;;5112314;28;19998;-69
2023/10/31 07:00:14;;;;;;;;;;;17.40;80.30;;;;;;5112804;28;19911;-69
2023/10/31 07:02:40;;;;;;;;;;;17.40;80.70;;;;;;5112369;28;20288;-69
2023/10/31 07:05:06;;;;;;;;;;;17.40;81.00;;;;;;5113274;28;20015;-69
2023/10/31 07:07:32;;;;;;;;;;;17.40;81.00;;;;;;5112061;28;20352;-70
2023/10/31 07:09:58;;;;;;;;;;;17.30;83.40;;;;;;5112753;28;19916;-69
2023/10/31 07:12:24;;;;;;;;;;;17.20;85.80;;;;;;5094563;28;20305;-68
2023/10/31 07:14:50;;;;;;;;;;;17.10;85.80;;;;;;5095192;28;20284;-69
2023/10/31 07:17:16;;;;;;;;;;;17.30;84.80;;;;;;5113612;28;19926;-69
2023/10/31 07:19:42;;;;;;;;;;;17.40;83.90;;;;;;5113190;28;19934;-69
2023/10/31 07:22:08;;;;;;;;;;;17.60;83.10;;;;;;5111471;28;19955;-68
2023/10/31 07:24:36;;;;;;;;;;;17.70;82.70;;;;;;5113157;28;20452;-69
2023/10/31 07:27:02;;;;;;;;;;;17.80;82.10;;;;;;5111963;28;19939;-69
2023/10/31 07:29:28;;;;;;;;;;;17.80;82.00;;;;;;5113030;28;19957;-69
2023/10/31 07:31:54;;;;;;;;;;;17.80;81.80;;;;;;5112819;28;20412;-69
2023/10/31 07:34:20;;;;;;;;;;;17.90;81.70;;;;;;5111726;28;20330;-68
2023/10/31 07:36:46;;;;;;;;;;;18.00;81.20;;;;;;5111685;28;19947;-69
2023/10/31 07:39:12;;;;;;;;;;;18.00;80.90;;;;;;5112790;28;19967;-69
2023/10/31 07:41:38;;;;;;;;;;;18.00;80.70;;;;;;5112649;28;19916;-69
2023/10/31 07:44:04;;;;;;;;;;;18.10;80.70;;;;;;5112975;28;19922;-69
2023/10/31 07:46:30;;;;;;;;;;;18.00;80.50;;;;;;5112917;28;20399;-69
2023/10/31 07:48:56;;;;;;;;;;;18.10;81.20;;;;;;5111351;28;20014;-69
2023/10/31 07:51:21;;;;;;;;;;;18.10;80.20;;;;;;5092588;28;20332;-70
2023/10/31 07:53:47;;;;;;;;;;;18.10;79.90;;;;;;5111382;28;19916;-70
2023/10/31 07:56:34;;;;;;;;;;;18.10;79.60;;;;;;5112461;28;19981;-70
2023/10/31 07:59:00;;;;;;;;;;;18.10;79.40;;;;;;5112875;28;19919;-69
2023/10/31 08:01:26;;;;;;;;;;;18.20;79.30;;;;;;5112339;28;19923;-70
2023/10/31 08:03:52;;;;;;;;;;;18.30;79.00;;;;;;5111512;28;20010;-69
2023/10/31 08:06:18;;;;;;;;;;;18.40;78.70;;;;;;5094446;28;19927;-70
2023/10/31 08:08:44;;;;;;;;;;;18.50;78.50;;;;;;5111317;28;19912;-69
2023/10/31 08:11:10;;;;;;;;;;;18.60;78.10;;;;;;5110919;28;19926;-68
2023/10/31 08:13:37;;;;;;;;;;;18.60;77.60;;;;;;5111555;28;20338;-70
2023/10/31 08:16:24;;;;;;;;;;;18.70;77.80;;;;;;5109950;28;19976;-69
2023/10/31 08:18:50;;;;;;;;;;;18.80;77.70;;;;;;5090680;28;19947;-70
2023/10/31 08:21:16;;;;;;;;;;;19.40;76.60;;;;;;5073637;28;20266;-69
2023/10/31 08:23:44;;;;;;;;;;;19.60;76.00;;;;;;5099723;28;19930;-69
2023/10/31 08:26:10;;;;;;;;;;;19.70;76.00;;;;;;5104609;28;19926;-69
2023/10/31 08:28:36;;;;;;;;;;;20.50;74.70;;;;;;5107147;28;19916;-69
2023/10/31 08:31:03;;;;;;;;;;;22.80;68.20;;;;;;5107391;28;20337;-69
2023/10/31 08:33:29;;;;;;;;;;;24.70;60.80;;;;;;5114859;28;19922;-70
2023/10/31 08:35:55;;;;;;;;;;;25.00;58.80;;;;;;5113549;28;19924;-70
2023/10/31 08:38:21;;;;;;;;;;;24.50;59.80;;;;;;5094338;28;20013;-70
2023/10/31 08:40:49;;;;;;;;;;;23.60;63.80;;;;;;5093695;28;19930;-70
2023/10/31 08:43:15;;;;;;;;;;;22.80;65.00;;;;;;5094257;28;20006;-70
2023/10/31 08:45:40;;;;;;;;;;;22.20;64.50;;;;;;5094137;28;19922;-70
2023/10/31 08:48:06;;;;;;;;;;;21.50;64.30;;;;;;5093966;28;20011;-69
2023/10/31 08:50:32;;;;;;;;;;;20.70;60.80;;;;;;5094734;28;19916;-69
2023/10/31 08:52:58;;;;;;;;;;;20.00;64.20;;;;;;5095200;28;20376;-68
2023/10/31 08:55:24;;;;;;;;;;;19.60;64.70;;;;;;5093885;28;20323;-69
2023/10/31 08:57:52;;;;;;;;;;;19.30;66.20;;;;;;5095287;28;19982;-69
2023/10/31 09:00:18;;;;;;;;;;;19.20;64.60;;;;;;5093310;28;20389;-70
2023/10/31 09:02:44;;;;;;;;;;;19.20;64.30;;;;;;5095318;28;19980;-69
2023/10/31 09:05:10;;;;;;;;;;;19.30;65.20;;;;;;5093693;28;20325;-69
2023/10/31 09:07:36;;;;;;;;;;;19.30;64.70;;;;;;5093870;28;20401;-68
2023/10/31 09:10:05;;;;;;;;;;;19.10;64.90;;;;;;5094998;28;20407;-68
2023/10/31 09:12:31;;;;;;;;;;;19.00;65.40;;;;;;5093697;28;19920;-68
2023/10/31 09:14:57;;;;;;;;;;;18.80;65.30;;;;;;5076879;28;19938;-69
2023/10/31 09:17:22;;;;;;;;;;;18.70;66.70;;;;;;5095267;28;20011;-70
2023/10/31 09:19:48;;;;;;;;;;;18.60;67.80;;;;;;5093517;28;19919;-70
2023/10/31 09:22:14;;;;;;;;;;;18.40;68.20;;;;;;5094442;28;19938;-70
2023/10/31 09:24:40;;;;;;;;;;;18.20;69.00;;;;;;5093493;28;20006;-69
2023/10/31 09:27:06;;;;;;;;;;;18.10;69.80;;;;;;5094859;28;20002;-69
2023/10/31 09:29:32;;;;;;;;;;;18.00;70.30;;;;;;5076527;28;19965;-69
2023/10/31 09:31:58;;;;;;;;;;;17.90;70.80;;;;;;5075830;28;20006;-69
2023/10/31 09:34:24;;;;;;;;;;;17.70;70.50;;;;;;5076059;28;19951;-69
2023/10/31 09:36:50;;;;;;;;;;;17.70;70.40;;;;;;5093292;28;19920;-70
2023/10/31 09:39:16;;;;;;;;;;;17.60;70.60;;;;;;5092884;28;20030;-69
2023/10/31 09:41:42;;;;;;;;;;;17.50;70.90;;;;;;5094016;28;19972;-68
2023/10/31 09:44:08;;;;;;;;;;;17.40;71.60;;;;;;5094193;28;19912;-69
2023/10/31 09:46:35;;;;;;;;;;;17.30;72.40;;;;;;5094365;28;20365;-68
2023/10/31 09:49:01;;;;;;;;;;;17.00;73.00;;;;;;5075745;28;19912;-69
2023/10/31 09:51:28;;;;;;;;;;;16.80;73.30;;;;;;5093887;28;19946;-69
2023/10/31 09:53:55;;;;;;;;;;;16.70;74.20;;;;;;5093046;28;19916;-68
2023/10/31 09:56:22;;;;;;;;;;;16.60;74.60;;;;;;5092922;28;19963;-69
2023/10/31 09:58:48;;;;;;;;;;;16.40;75.10;;;;;;5092959;28;20358;-69
2023/10/31 10:01:14;;;;;;;;;;;16.30;75.70;;;;;;5091997;28;19928;-70
2023/10/31 10:03:40;;;;;;;;;;;16.30;75.90;;;;;;5094171;28;20428;-69
2023/10/31 10:06:07;;;;;;;;;;;16.30;75.50;;;;;;5092527;28;19927;-69
2023/10/31 10:08:37;;;;;;;;;;;16.30;75.20;;;;;;5092369;28;20342;-70
2023/10/31 10:11:03;;;;;;;;;;;16.40;75.10;;;;;;5093661;28;19920;-68
2023/10/31 10:13:30;;;;;;;;;;;16.40;74.10;;;;;;5094021;28;19916;-69
2023/10/31 10:15:55;;;;;;;;;;;16.50;74.70;;;;;;5093718;28;20273;-69
2023/10/31 10:18:40;;;;;;;;;;;16.50;74.70;;;;;;5092446;28;19915;-68
2023/10/31 10:21:08;;;;;;;;;;;16.60;74.40;;;;;;5091831;28;19923;-68
2023/10/31 10:23:34;;;;;;;;;;;16.70;73.90;;;;;;5092433;28;20288;-69
2023/10/31 10:26:01;;;;;;;;;;;16.80;73.90;;;;;;5075128;28;19946;-68
2023/10/31 10:28:29;;;;;;;;;;;17.00;73.70;;;;;;5075448;28;19934;-69
2023/10/31 10:30:55;;;;;;;;;;;17.20;73.30;;;;;;5091489;28;20383;-68
2023/10/31 10:33:21;;;;;;;;;;;17.50;72.10;;;;;;5093529;28;19912;-70
2023/10/31 10:35:48;;;;;;;;;;;17.60;72.20;;;;;;5092041;28;20323;-69
2023/10/31 10:38:34;;;;;;;;;;;17.60;71.80;;;;;;5074818;28;19912;-69
2023/10/31 10:41:02;;;;;;;;;;;17.60;72.40;;;;;;5092969;28;20382;-69
2023/10/31 10:43:28;;;;;;;;;;;17.60;72.40;;;;;;5092221;28;19916;-69
2023/10/31 10:45:57;;;;;;;;;;;17.60;72.40;;;;;;5091055;28;20373;-70
2023/10/31 10:48:25;;;;;;;;;;;17.60;72.20;;;;;;5091877;28;19937;-69
2023/10/31 10:50:57;;;;;;;;;;;17.60;72.30;;;;;;5074290;28;19920;-69
2023/10/31 10:53:28;;;;;;;;;;;17.70;72.10;;;;;;5092062;28;19916;-70
2023/10/31 10:56:31;;;;;;;;;;;18.00;71.90;;;;;;5091956;28;19924;-69
2023/10/31 10:59:18;;;;;;;;;;;18.80;70.20;;;;;;5093079;28;19912;-69
2023/10/31 11:01:46;;;;;;;;;;;19.30;68.60;;;;;;5092791;28;19920;-69
2023/10/31 11:04:13;;;;;;;;;;;19.40;68.10;;;;;;5091460;28;20391;-70
2023/10/31 11:06:39;;;;;;;;;;;19.40;67.70;;;;;;5074607;28;19963;-70
2023/10/31 11:09:06;;;;;;;;;;;19.40;66.80;;;;;;5091424;28;19916;-70
2023/10/31 11:11:32;;;;;;;;;;;19.50;67.00;;;;;;5091145;28;19928;-70
2023/10/31 11:14:01;;;;;;;;;;;19.60;66.40;;;;;;5092908;28;19919;-69
2023/10/31 11:16:49;;;;;;;;;;;19.70;66.10;;;;;;5093062;28;20430;-70
2023/10/31 11:19:15;;;;;;;;;;;19.70;66.30;;;;;;5092854;28;19912;-70
2023/10/31 11:22:01;;;;;;;;;;;19.70;65.80;;;;;;5092512;28;20269;-69
2023/10/31 11:24:46;;;;;;;;;;;19.70;66.10;;;;;;5092713;28;20007;-70
2023/10/31 11:27:12;;;;;;;;;;;20.20;65.20;;;;;;5092508;28;19926;-69
2023/10/31 11:29:38;;;;;;;;;;;21.90;60.70;;;;;;5091630;28;20350;-70
2023/10/31 11:32:08;;;;;;;;;;;22.50;57.30;;;;;;5091083;28;19926;-70
2023/10/31 11:34:38;;;;;;;;;;;22.10;56.70;;;;;;5092609;28;19912;-69
2023/10/31 11:37:19;;;;;;;;;;;21.80;58.20;;;;;;5091516;28;19920;-69
2023/10/31 11:40:23;;;;;;;;;;;21.50;58.80;;;;;;5091587;28;20019;-69
2023/10/31 11:43:08;;;;;;;;;;;21.00;59.60;;;;;;5095688;28;20003;-70
2023/10/31 11:49:00;;;;;;;;;;;20.40;61.00;;;;;;5112982;28;19916;-70
2023/10/31 11:51:26;;;;;;;;;;;20.20;60.00;;;;;;5111193;28;19942;-69
2023/10/31 11:53:52;;;;;;;;;;;20.20;60.90;;;;;;5113088;28;19916;-70
2023/10/31 11:56:19;;;;;;;;;;;20.70;59.30;;;;;;5114466;28;19920;-69
2023/10/31 11:58:55;;;;;;;;;;;20.80;58.90;;;;;;5094151;28;19927;-69
2023/10/31 12:01:20;;;;;;;;;;;20.90;58.00;;;;;;5103909;28;20002;-69
2023/10/31 12:06:30;;;;;;;;;;;21.00;58.30;;;;;;5116737;28;19931;-69
2023/10/31 12:08:59;;;;;;;;;;;21.90;55.70;;;;;;5114817;28;20007;-69
2023/10/31 12:11:25;;;;;;;;;;;22.60;53.50;;;;;;5114852;28;19965;-70
2023/10/31 12:14:10;;;;;;;;;;;23.00;50.90;;;;;;5116663;27;20360;-69
2023/10/31 12:16:35;;;;;;;;;;;22.50;52.80;;;;;;5115225;28;19920;-69
2023/10/31 12:19:20;;;;;;;;;;;22.40;52.20;;;;;;5116262;28;19919;-70
2023/10/31 12:21:47;;;;;;;;;;;22.80;51.10;;;;;;5114504;28;19923;-70
2023/10/31 12:24:15;;;;;;;;;;;22.80;51.80;;;;;;5115041;28;20427;-70
2023/10/31 12:26:41;;;;;;;;;;;22.90;48.60;;;;;;5097897;28;19930;-69
2023/10/31 12:29:26;;;;;;;;;;;23.10;49.60;;;;;;5115063;28;20406;-69
2023/10/31 12:31:53;;;;;;;;;;;24.00;46.70;;;;;;5114567;28;20261;-70
2023/10/31 12:34:39;;;;;;;;;;;24.00;47.00;;;;;;5114758;28;19915;-69
2023/10/31 12:37:04;;;;;;;;;;;24.00;48.50;;;;;;5116432;27;20360;-69
2023/10/31 12:39:31;;;;;;;;;;;24.50;46.70;;;;;;5115945;28;19923;-69
2023/10/31 12:41:58;;;;;;;;;;;25.40;44.00;;;;;;5114265;28;20006;-68
2023/10/31 12:44:25;;;;;;;;;;;25.60;43.80;;;;;;5097634;28;20011;-70
2023/10/31 12:46:52;;;;;;;;;;;26.70;40.80;;;;;;5116216;28;19919;-69
2023/10/31 12:49:19;;;;;;;;;;;27.70;38.20;;;;;;5115573;28;19915;-70
2023/10/31 12:52:04;;;;;;;;;;;27.30;37.70;;;;;;5114139;28;20173;-69
2023/10/31 12:54:31;;;;;;;;;;;26.10;41.10;;;;;;5114403;28;19926;-70
2023/10/31 12:57:15;;;;;;;;;;;25.70;43.30;;;;;;5097449;28;20279;-70
2023/10/31 12:59:41;;;;;;;;;;;25.50;37.80;;;;;;5114478;28;19911;-70
2023/10/31 13:02:08;;;;;;;;;;;26.10;33.80;;;;;;5113841;28;20003;-70
2023/10/31 13:04:33;;;;;;;;;;;26.60;32.00;;;;;;5115377;28;19965;-70
2023/10/31 13:07:02;;;;;;;;;;;25.20;34.70;;;;;;5115328;27;19920;-70
2023/10/31 13:09:47;;;;;;;;;;;24.10;36.70;;;;;;5096682;28;20372;-70
2023/10/31 13:12:14;;;;;;;;;;;23.20;36.20;;;;;;5115264;28;19916;-70
2023/10/31 13:14:40;;;;;;;;;;;22.50;39.40;;;;;;5114537;28;19977;-70
2023/10/31 13:17:06;;;;;;;;;;;22.10;42.20;;;;;;5115659;28;20331;-70
2023/10/31 13:19:32;;;;;;;;;;;22.80;41.30;;;;;;5115132;28;19924;-69
2023/10/31 13:21:58;;;;;;;;;;;25.60;35.60;;;;;;5112023;28;19919;-69
2023/10/31 13:24:24;;;;;;;;;;;25.90;33.00;;;;;;5113856;28;20015;-70
2023/10/31 13:29:35;;;;;;;;;;;28.00;27.70;;;;;;5114826;28;19911;-70
2023/10/31 13:32:03;;;;;;;;;;;28.50;27.70;;;;;;5106298;28;20390;-70
2023/10/31 13:34:32;;;;;;;;;;;29.20;25.20;;;;;;5114870;28;19911;-70
2023/10/31 13:36:58;;;;;;;;;;;29.00;25.90;;;;;;5113590;28;19919;-70
2023/10/31 13:39:24;;;;;;;;;;;28.80;25.20;;;;;;5113473;28;19912;-70
2023/10/31 13:41:50;;;;;;;;;;;28.50;25.90;;;;;;5100859;28;20373;-69
2023/10/31 13:44:16;;;;;;;;;;;28.70;26.20;;;;;;5094628;28;19954;-70
2023/10/31 13:46:42;;;;;;;;;;;29.00;26.00;;;;;;5102444;28;20375;-69
2023/10/31 13:49:09;;;;;;;;;;;28.80;25.20;;;;;;5099948;28;19923;-69
2023/10/31 13:51:35;;;;;;;;;;;28.50;25.50;;;;;;5110625;28;19966;-70
2023/10/31 13:54:02;;;;;;;;;;;27.70;26.90;;;;;;5114706;28;19916;-69
2023/10/31 13:56:28;;;;;;;;;;;26.10;29.20;;;;;;5114663;28;19959;-69
2023/10/31 13:58:54;;;;;;;;;;;25.10;31.30;;;;;;5113192;28;19934;-69
2023/10/31 14:01:24;;;;;;;;;;;24.20;33.50;;;;;;5112556;28;19924;-69
2023/10/31 14:03:50;;;;;;;;;;;24.10;33.30;;;;;;5113392;28;19923;-70
2023/10/31 14:06:17;;;;;;;;;;;23.80;32.80;;;;;;5112824;28;19919;-69
2023/10/31 14:08:43;;;;;;;;;;;23.50;34.40;;;;;;5114133;28;20292;-69
2023/10/31 14:11:09;;;;;;;;;;;22.80;34.30;;;;;;5113893;28;19919;-70
2023/10/31 14:13:38;;;;;;;;;;;22.40;35.70;;;;;;5114290;28;19974;-70
2023/10/31 14:16:04;;;;;;;;;;;22.20;36.20;;;;;;5104183;28;19920;-69
2023/10/31 14:18:31;;;;;;;;;;;21.90;37.60;;;;;;5103874;28;19922;-70
2023/10/31 14:20:57;;;;;;;;;;;21.90;38.50;;;;;;5104147;28;19920;-69
2023/10/31 14:23:22;;;;;;;;;;;21.80;38.60;;;;;;5101306;28;20048;-70
2023/10/31 14:25:48;;;;;;;;;;;21.70;37.90;;;;;;5110550;28;20011;-70
2023/10/31 14:28:14;;;;;;;;;;;21.30;38.60;;;;;;5112745;28;19915;-69
2023/10/31 14:30:40;;;;;;;;;;;21.00;39.30;;;;;;5111907;28;19927;-69
2023/10/31 14:33:06;;;;;;;;;;;21.20;39.80;;;;;;5113844;28;19919;-69